Napanee, Canada
Current Conditions -  °F | °C
As of 7:00 AM on Sunday 23 Nov 2014 (Local Time) from CYGK Reporting Station
Overcast Overcast  
Wind Chill: 41°   Ceiling: 1600
Heat Index: 45°   Visibility: 10mi
Dew Point: 43°   Wind: 7mph
Humidity: 93%   Direction: 230°SW
Pressure: 30.01"   Gusts: NA
Location:  44.25°N, 76.95°W
Report Text: CYGK 231200Z 23006KT 10SM SCT007 OVC016 07/06 A3001 RMK ST4SC4 SLP165
Loading
Personal Weather Stations






























Interactive Weather Map New forecast layout! Learn more

10-Day Weather Forecast

Advertisements
Track Severe Weather on mobile